sensor_id;sensor_type;location;lat;lon;timestamp;P1;P2;P0
56175;PMS5003;63065;51.082;17.016;2022-10-18T00:00:28;29;29;
56175;PMS5003;63065;51.082;17.016;2022-10-18T00:02:54;32;28;
56175;PMS5003;63065;51.082;17.016;2022-10-18T00:05:20;24;24;
56175;PMS5003;63065;51.082;17.016;2022-10-18T00:07:46;30;29;
56175;PMS5003;63065;51.082;17.016;2022-10-18T00:10:11;34;28;
56175;PMS5003;63065;51.082;17.016;2022-10-18T00:12:37;28;25;
56175;PMS5003;63065;51.082;17.016;2022-10-18T00:15:03;29;28;
56175;PMS5003;63065;51.082;17.016;2022-10-18T00:17:28;30;28;
56175;PMS5003;63065;51.082;17.016;2022-10-18T00:19:53;26;25;
56175;PMS5003;63065;51.082;17.016;2022-10-18T00:22:19;30;29;
56175;PMS5003;63065;51.082;17.016;2022-10-18T00:24:45;26;26;
56175;PMS5003;63065;51.082;17.016;2022-10-18T00:27:10;26;26;
56175;PMS5003;63065;51.082;17.016;2022-10-18T00:29:36;26;26;
56175;PMS5003;63065;51.082;17.016;2022-10-18T00:32:05;29;26;
56175;PMS5003;63065;51.082;17.016;2022-10-18T00:34:27;29;29;
56175;PMS5003;63065;51.082;17.016;2022-10-18T00:36:56;31;31;
56175;PMS5003;63065;51.082;17.016;2022-10-18T00:39:19;27;26;
56175;PMS5003;63065;51.082;17.016;2022-10-18T00:41:44;28;27;
56175;PMS5003;63065;51.082;17.016;2022-10-18T00:46:35;32;30;
56175;PMS5003;63065;51.082;17.016;2022-10-18T00:49:00;31;28;
56175;PMS5003;63065;51.082;17.016;2022-10-18T00:51:26;33;30;
56175;PMS5003;63065;51.082;17.016;2022-10-18T00:53:50;30;27;
56175;PMS5003;63065;51.082;17.016;2022-10-18T00:56:16;29;26;
56175;PMS5003;63065;51.082;17.016;2022-10-18T00:58:42;25;23;
56175;PMS5003;63065;51.082;17.016;2022-10-18T01:01:07;30;30;
56175;PMS5003;63065;51.082;17.016;2022-10-18T01:03:33;29;27;
56175;PMS5003;63065;51.082;17.016;2022-10-18T01:05:58;27;25;
56175;PMS5003;63065;51.082;17.016;2022-10-18T01:08:28;25;25;
56175;PMS5003;63065;51.082;17.016;2022-10-18T01:10:52;27;26;
56175;PMS5003;63065;51.082;17.016;2022-10-18T01:13:20;30;28;
56175;PMS5003;63065;51.082;17.016;2022-10-18T01:15:42;26;24;
56175;PMS5003;63065;51.082;17.016;2022-10-18T01:18:07;26;24;
56175;PMS5003;63065;51.082;17.016;2022-10-18T01:20:39;28;28;
56175;PMS5003;63065;51.082;17.016;2022-10-18T01:22:58;23;23;
56175;PMS5003;63065;51.082;17.016;2022-10-18T01:25:28;25;25;
56175;PMS5003;63065;51.082;17.016;2022-10-18T01:27:49;29;28;
56175;PMS5003;63065;51.082;17.016;2022-10-18T01:32:38;31;30;
56175;PMS5003;63065;51.082;17.016;2022-10-18T01:35:06;28;26;
56175;PMS5003;63065;51.082;17.016;2022-10-18T01:37:29;28;28;
56175;PMS5003;63065;51.082;17.016;2022-10-18T01:39:55;30;30;
56175;PMS5003;63065;51.082;17.016;2022-10-18T01:42:20;29;25;
56175;PMS5003;63065;51.082;17.016;2022-10-18T01:44:46;32;26;
56175;PMS5003;63065;51.082;17.016;2022-10-18T01:47:11;31;28;
56175;PMS5003;63065;51.082;17.016;2022-10-18T01:49:36;27;26;
56175;PMS5003;63065;51.082;17.016;2022-10-18T01:52:02;27;24;
56175;PMS5003;63065;51.082;17.016;2022-10-18T01:54:28;36;31;
56175;PMS5003;63065;51.082;17.016;2022-10-18T01:56:54;30;26;
56175;PMS5003;63065;51.082;17.016;2022-10-18T02:01:48;27;24;
56175;PMS5003;63065;51.082;17.016;2022-10-18T02:04:13;24;21;
56175;PMS5003;63065;51.082;17.016;2022-10-18T02:06:36;25;23;
56175;PMS5003;63065;51.082;17.016;2022-10-18T02:09:01;30;29;
56175;PMS5003;63065;51.082;17.016;2022-10-18T02:11:25;25;25;
56175;PMS5003;63065;51.082;17.016;2022-10-18T02:13:52;27;27;
56175;PMS5003;63065;51.082;17.016;2022-10-18T02:16:18;25;25;
56175;PMS5003;63065;51.082;17.016;2022-10-18T02:18:43;26;24;
56175;PMS5003;63065;51.082;17.016;2022-10-18T02:21:09;27;25;
56175;PMS5003;63065;51.082;17.016;2022-10-18T02:23:33;31;27;
56175;PMS5003;63065;51.082;17.016;2022-10-18T02:25:58;25;25;
56175;PMS5003;63065;51.082;17.016;2022-10-18T02:28:24;28;26;
56175;PMS5003;63065;51.082;17.016;2022-10-18T02:30:51;25;23;
56175;PMS5003;63065;51.082;17.016;2022-10-18T02:33:15;28;24;
56175;PMS5003;63065;51.082;17.016;2022-10-18T02:35:41;29;27;
56175;PMS5003;63065;51.082;17.016;2022-10-18T02:38:05;29;28;
56175;PMS5003;63065;51.082;17.016;2022-10-18T02:40:30;28;28;
56175;PMS5003;63065;51.082;17.016;2022-10-18T02:42:56;23;23;
56175;PMS5003;63065;51.082;17.016;2022-10-18T02:45:22;25;25;
56175;PMS5003;63065;51.082;17.016;2022-10-18T02:47:46;30;27;
56175;PMS5003;63065;51.082;17.016;2022-10-18T02:50:12;26;26;
56175;PMS5003;63065;51.082;17.016;2022-10-18T02:52:37;26;25;
56175;PMS5003;63065;51.082;17.016;2022-10-18T02:55:03;34;29;
56175;PMS5003;63065;51.082;17.016;2022-10-18T02:57:29;29;29;
56175;PMS5003;63065;51.082;17.016;2022-10-18T02:59:54;23;23;
56175;PMS5003;63065;51.082;17.016;2022-10-18T03:02:20;28;27;
56175;PMS5003;63065;51.082;17.016;2022-10-18T03:04:45;33;31;
56175;PMS5003;63065;51.082;17.016;2022-10-18T03:07:10;29;24;
56175;PMS5003;63065;51.082;17.016;2022-10-18T03:09:36;25;25;
56175;PMS5003;63065;51.082;17.016;2022-10-18T03:12:02;29;28;
56175;PMS5003;63065;51.082;17.016;2022-10-18T03:14:27;26;24;
56175;PMS5003;63065;51.082;17.016;2022-10-18T03:16:53;25;25;
56175;PMS5003;63065;51.082;17.016;2022-10-18T03:19:19;32;26;
56175;PMS5003;63065;51.082;17.016;2022-10-18T03:21:44;26;24;
56175;PMS5003;63065;51.082;17.016;2022-10-18T03:24:10;26;26;
56175;PMS5003;63065;51.082;17.016;2022-10-18T03:26:35;25;23;
56175;PMS5003;63065;51.082;17.016;2022-10-18T03:29:01;22;21;
56175;PMS5003;63065;51.082;17.016;2022-10-18T03:31:26;28;26;
56175;PMS5003;63065;51.082;17.016;2022-10-18T03:33:51;29;26;
56175;PMS5003;63065;51.082;17.016;2022-10-18T03:36:17;26;24;
56175;PMS5003;63065;51.082;17.016;2022-10-18T03:38:42;32;31;
56175;PMS5003;63065;51.082;17.016;2022-10-18T03:41:08;30;26;
56175;PMS5003;63065;51.082;17.016;2022-10-18T03:43:33;32;32;
56175;PMS5003;63065;51.082;17.016;2022-10-18T03:45:59;28;27;
56175;PMS5003;63065;51.082;17.016;2022-10-18T03:48:24;29;25;
56175;PMS5003;63065;51.082;17.016;2022-10-18T03:50:50;33;29;
56175;PMS5003;63065;51.082;17.016;2022-10-18T03:53:15;28;25;
56175;PMS5003;63065;51.082;17.016;2022-10-18T03:55:41;26;26;
56175;PMS5003;63065;51.082;17.016;2022-10-18T03:58:06;30;28;
56175;PMS5003;63065;51.082;17.016;2022-10-18T04:00:31;29;25;
56175;PMS5003;63065;51.082;17.016;2022-10-18T04:02:56;34;33;
56175;PMS5003;63065;51.082;17.016;2022-10-18T04:05:22;32;28;
56175;PMS5003;63065;51.082;17.016;2022-10-18T04:07:47;31;28;
56175;PMS5003;63065;51.082;17.016;2022-10-18T04:10:13;32;29;
56175;PMS5003;63065;51.082;17.016;2022-10-18T04:12:38;35;34;
56175;PMS5003;63065;51.082;17.016;2022-10-18T04:15:03;27;26;
56175;PMS5003;63065;51.082;17.016;2022-10-18T04:17:29;34;32;
56175;PMS5003;63065;51.082;17.016;2022-10-18T04:19:54;27;24;
56175;PMS5003;63065;51.082;17.016;2022-10-18T04:22:20;32;28;
56175;PMS5003;63065;51.082;17.016;2022-10-18T04:24:46;26;25;
56175;PMS5003;63065;51.082;17.016;2022-10-18T04:27:11;30;27;
56175;PMS5003;63065;51.082;17.016;2022-10-18T04:29:36;27;26;
56175;PMS5003;63065;51.082;17.016;2022-10-18T04:32:01;29;29;
56175;PMS5003;63065;51.082;17.016;2022-10-18T04:34:27;30;28;
56175;PMS5003;63065;51.082;17.016;2022-10-18T04:36:52;30;28;
56175;PMS5003;63065;51.082;17.016;2022-10-18T04:39:17;27;24;
56175;PMS5003;63065;51.082;17.016;2022-10-18T04:41:43;32;31;
56175;PMS5003;63065;51.082;17.016;2022-10-18T04:44:08;26;24;
56175;PMS5003;63065;51.082;17.016;2022-10-18T04:46:35;28;26;
56175;PMS5003;63065;51.082;17.016;2022-10-18T04:49:00;29;29;
56175;PMS5003;63065;51.082;17.016;2022-10-18T04:51:26;30;27;
56175;PMS5003;63065;51.082;17.016;2022-10-18T04:53:51;26;24;
56175;PMS5003;63065;51.082;17.016;2022-10-18T04:56:16;28;26;
56175;PMS5003;63065;51.082;17.016;2022-10-18T04:58:42;28;24;
56175;PMS5003;63065;51.082;17.016;2022-10-18T05:01:07;32;31;
56175;PMS5003;63065;51.082;17.016;2022-10-18T05:03:32;30;26;
56175;PMS5003;63065;51.082;17.016;2022-10-18T05:05:58;31;28;
56175;PMS5003;63065;51.082;17.016;2022-10-18T05:08:23;32;27;
56175;PMS5003;63065;51.082;17.016;2022-10-18T05:10:49;30;27;
56175;PMS5003;63065;51.082;17.016;2022-10-18T05:13:14;35;34;
56175;PMS5003;63065;51.082;17.016;2022-10-18T05:15:40;24;24;
56175;PMS5003;63065;51.082;17.016;2022-10-18T05:18:06;30;27;
56175;PMS5003;63065;51.082;17.016;2022-10-18T05:20:31;28;26;
56175;PMS5003;63065;51.082;17.016;2022-10-18T05:22:56;26;24;
56175;PMS5003;63065;51.082;17.016;2022-10-18T05:25:22;32;29;
56175;PMS5003;63065;51.082;17.016;2022-10-18T05:27:47;35;31;
56175;PMS5003;63065;51.082;17.016;2022-10-18T05:30:13;34;31;
56175;PMS5003;63065;51.082;17.016;2022-10-18T05:32:38;28;27;
56175;PMS5003;63065;51.082;17.016;2022-10-18T05:35:03;27;27;
56175;PMS5003;63065;51.082;17.016;2022-10-18T05:37:29;33;31;
56175;PMS5003;63065;51.082;17.016;2022-10-18T05:39:54;31;30;
56175;PMS5003;63065;51.082;17.016;2022-10-18T05:42:20;28;28;
56175;PMS5003;63065;51.082;17.016;2022-10-18T05:44:45;30;28;
56175;PMS5003;63065;51.082;17.016;2022-10-18T05:47:11;29;29;
56175;PMS5003;63065;51.082;17.016;2022-10-18T05:49:37;27;27;
56175;PMS5003;63065;51.082;17.016;2022-10-18T05:52:02;35;34;
56175;PMS5003;63065;51.082;17.016;2022-10-18T05:54:27;35;31;
56175;PMS5003;63065;51.082;17.016;2022-10-18T05:56:53;30;29;
56175;PMS5003;63065;51.082;17.016;2022-10-18T05:59:19;35;32;
56175;PMS5003;63065;51.082;17.016;2022-10-18T06:01:44;39;36;
56175;PMS5003;63065;51.082;17.016;2022-10-18T06:04:10;38;38;
56175;PMS5003;63065;51.082;17.016;2022-10-18T06:06:35;36;33;
56175;PMS5003;63065;51.082;17.016;2022-10-18T06:09:01;39;35;
56175;PMS5003;63065;51.082;17.016;2022-10-18T06:11:26;39;37;
56175;PMS5003;63065;51.082;17.016;2022-10-18T06:13:51;44;42;
56175;PMS5003;63065;51.082;17.016;2022-10-18T06:16:17;46;42;
56175;PMS5003;63065;51.082;17.016;2022-10-18T06:18:45;44;43;
56175;PMS5003;63065;51.082;17.016;2022-10-18T06:21:08;42;40;
56175;PMS5003;63065;51.082;17.016;2022-10-18T06:23:32;43;38;
56175;PMS5003;63065;51.082;17.016;2022-10-18T06:25:58;42;38;
56175;PMS5003;63065;51.082;17.016;2022-10-18T06:28:24;45;41;
56175;PMS5003;63065;51.082;17.016;2022-10-18T06:30:49;36;33;
56175;PMS5003;63065;51.082;17.016;2022-10-18T06:33:15;39;37;
56175;PMS5003;63065;51.082;17.016;2022-10-18T06:35:40;48;40;
56175;PMS5003;63065;51.082;17.016;2022-10-18T06:38:05;39;36;
56175;PMS5003;63065;51.082;17.016;2022-10-18T06:40:30;41;40;
56175;PMS5003;63065;51.082;17.016;2022-10-18T06:42:56;31;31;
56175;PMS5003;63065;51.082;17.016;2022-10-18T06:45:22;43;36;
56175;PMS5003;63065;51.082;17.016;2022-10-18T06:47:47;41;40;
56175;PMS5003;63065;51.082;17.016;2022-10-18T06:50:13;42;36;
56175;PMS5003;63065;51.082;17.016;2022-10-18T06:52:38;40;40;
56175;PMS5003;63065;51.082;17.016;2022-10-18T06:55:04;33;33;
56175;PMS5003;63065;51.082;17.016;2022-10-18T06:57:29;36;34;
56175;PMS5003;63065;51.082;17.016;2022-10-18T06:59:54;45;39;
56175;PMS5003;63065;51.082;17.016;2022-10-18T07:02:19;40;39;
56175;PMS5003;63065;51.082;17.016;2022-10-18T07:04:44;42;39;
56175;PMS5003;63065;51.082;17.016;2022-10-18T07:07:10;34;31;
56175;PMS5003;63065;51.082;17.016;2022-10-18T07:09:35;43;42;
56175;PMS5003;63065;51.082;17.016;2022-10-18T07:12:01;39;39;
56175;PMS5003;63065;51.082;17.016;2022-10-18T07:14:26;38;34;
56175;PMS5003;63065;51.082;17.016;2022-10-18T07:16:52;38;35;
56175;PMS5003;63065;51.082;17.016;2022-10-18T07:19:18;34;33;
56175;PMS5003;63065;51.082;17.016;2022-10-18T07:21:44;38;36;
56175;PMS5003;63065;51.082;17.016;2022-10-18T07:24:09;31;31;
56175;PMS5003;63065;51.082;17.016;2022-10-18T07:26:35;39;35;
56175;PMS5003;63065;51.082;17.016;2022-10-18T07:29:03;39;36;
56175;PMS5003;63065;51.082;17.016;2022-10-18T07:31:26;33;32;
56175;PMS5003;63065;51.082;17.016;2022-10-18T07:33:52;34;31;
56175;PMS5003;63065;51.082;17.016;2022-10-18T07:36:17;32;31;
56175;PMS5003;63065;51.082;17.016;2022-10-18T07:38:42;33;32;
56175;PMS5003;63065;51.082;17.016;2022-10-18T07:41:09;38;33;
56175;PMS5003;63065;51.082;17.016;2022-10-18T07:43:33;35;31;
56175;PMS5003;63065;51.082;17.016;2022-10-18T07:45:59;37;33;
56175;PMS5003;63065;51.082;17.016;2022-10-18T07:48:24;37;33;
56175;PMS5003;63065;51.082;17.016;2022-10-18T07:50:49;35;30;
56175;PMS5003;63065;51.082;17.016;2022-10-18T07:53:15;39;36;
56175;PMS5003;63065;51.082;17.016;2022-10-18T07:55:41;34;32;
56175;PMS5003;63065;51.082;17.016;2022-10-18T07:58:06;37;33;
56175;PMS5003;63065;51.082;17.016;2022-10-18T08:00:32;38;33;
56175;PMS5003;63065;51.082;17.016;2022-10-18T08:02:58;32;30;
56175;PMS5003;63065;51.082;17.016;2022-10-18T08:05:23;30;30;
56175;PMS5003;63065;51.082;17.016;2022-10-18T08:07:49;26;26;
56175;PMS5003;63065;51.082;17.016;2022-10-18T08:10:14;33;30;
56175;PMS5003;63065;51.082;17.016;2022-10-18T08:12:40;34;32;
56175;PMS5003;63065;51.082;17.016;2022-10-18T08:15:06;29;27;
56175;PMS5003;63065;51.082;17.016;2022-10-18T08:17:31;33;30;
56175;PMS5003;63065;51.082;17.016;2022-10-18T08:19:57;28;27;
56175;PMS5003;63065;51.082;17.016;2022-10-18T08:22:22;26;25;
56175;PMS5003;63065;51.082;17.016;2022-10-18T08:24:48;31;29;
56175;PMS5003;63065;51.082;17.016;2022-10-18T08:27:13;33;30;
56175;PMS5003;63065;51.082;17.016;2022-10-18T08:29:39;27;25;
56175;PMS5003;63065;51.082;17.016;2022-10-18T08:32:04;27;26;
56175;PMS5003;63065;51.082;17.016;2022-10-18T08:34:29;32;31;
56175;PMS5003;63065;51.082;17.016;2022-10-18T08:36:55;27;24;
56175;PMS5003;63065;51.082;17.016;2022-10-18T08:39:21;29;28;
56175;PMS5003;63065;51.082;17.016;2022-10-18T08:41:51;34;29;
56175;PMS5003;63065;51.082;17.016;2022-10-18T08:44:14;36;35;
56175;PMS5003;63065;51.082;17.016;2022-10-18T08:46:39;27;27;
56175;PMS5003;63065;51.082;17.016;2022-10-18T08:49:04;35;30;
56175;PMS5003;63065;51.082;17.016;2022-10-18T08:51:28;25;25;
56175;PMS5003;63065;51.082;17.016;2022-10-18T08:53:55;27;25;
56175;PMS5003;63065;51.082;17.016;2022-10-18T08:56:19;31;29;
56175;PMS5003;63065;51.082;17.016;2022-10-18T08:58:44;24;22;
56175;PMS5003;63065;51.082;17.016;2022-10-18T09:01:21;29;26;
56175;PMS5003;63065;51.082;17.016;2022-10-18T09:03:43;29;28;
56175;PMS5003;63065;51.082;17.016;2022-10-18T09:06:02;30;30;
56175;PMS5003;63065;51.082;17.016;2022-10-18T09:08:29;27;27;
56175;PMS5003;63065;51.082;17.016;2022-10-18T09:10:53;27;27;
56175;PMS5003;63065;51.082;17.016;2022-10-18T09:13:24;28;28;
56175;PMS5003;63065;51.082;17.016;2022-10-18T09:15:43;27;25;
56175;PMS5003;63065;51.082;17.016;2022-10-18T09:18:11;24;21;
56175;PMS5003;63065;51.082;17.016;2022-10-18T09:20:34;32;30;
56175;PMS5003;63065;51.082;17.016;2022-10-18T09:23:01;34;30;
56175;PMS5003;63065;51.082;17.016;2022-10-18T09:25:24;23;23;
56175;PMS5003;63065;51.082;17.016;2022-10-18T09:27:51;26;24;
56175;PMS5003;63065;51.082;17.016;2022-10-18T09:30:17;26;25;
56175;PMS5003;63065;51.082;17.016;2022-10-18T09:32:43;25;24;
56175;PMS5003;63065;51.082;17.016;2022-10-18T09:35:10;24;24;
56175;PMS5003;63065;51.082;17.016;2022-10-18T09:37:31;26;25;
56175;PMS5003;63065;51.082;17.016;2022-10-18T09:40:00;32;28;
56175;PMS5003;63065;51.082;17.016;2022-10-18T09:42:22;26;26;
56175;PMS5003;63065;51.082;17.016;2022-10-18T09:44:48;25;22;
56175;PMS5003;63065;51.082;17.016;2022-10-18T09:47:15;28;26;
56175;PMS5003;63065;51.082;17.016;2022-10-18T09:49:40;30;28;
56175;PMS5003;63065;51.082;17.016;2022-10-18T09:52:06;28;26;
56175;PMS5003;63065;51.082;17.016;2022-10-18T09:54:31;27;26;
56175;PMS5003;63065;51.082;17.016;2022-10-18T09:56:59;29;28;
56175;PMS5003;63065;51.082;17.016;2022-10-18T09:59:26;26;26;
56175;PMS5003;63065;51.082;17.016;2022-10-18T10:01:47;29;25;
56175;PMS5003;63065;51.082;17.016;2022-10-18T10:04:12;32;31;
56175;PMS5003;63065;51.082;17.016;2022-10-18T10:06:38;26;26;
56175;PMS5003;63065;51.082;17.016;2022-10-18T10:09:04;28;27;
56175;PMS5003;63065;51.082;17.016;2022-10-18T10:11:31;34;30;
56175;PMS5003;63065;51.082;17.016;2022-10-18T10:13:56;32;28;
56175;PMS5003;63065;51.082;17.016;2022-10-18T10:16:20;30;27;
56175;PMS5003;63065;51.082;17.016;2022-10-18T10:18:45;23;22;
56175;PMS5003;63065;51.082;17.016;2022-10-18T10:21:12;25;25;
56175;PMS5003;63065;51.082;17.016;2022-10-18T10:23:37;25;23;
56175;PMS5003;63065;51.082;17.016;2022-10-18T10:26:03;29;27;
56175;PMS5003;63065;51.082;17.016;2022-10-18T10:28:28;30;29;
56175;PMS5003;63065;51.082;17.016;2022-10-18T10:30:53;26;26;
56175;PMS5003;63065;51.082;17.016;2022-10-18T10:35:44;23;22;
56175;PMS5003;63065;51.082;17.016;2022-10-18T10:38:20;24;24;
56175;PMS5003;63065;51.082;17.016;2022-10-18T10:40:35;30;27;
56175;PMS5003;63065;51.082;17.016;2022-10-18T10:43:02;24;23;
56175;PMS5003;63065;51.082;17.016;2022-10-18T10:45:26;26;24;
56175;PMS5003;63065;51.082;17.016;2022-10-18T10:47:51;33;30;
56175;PMS5003;63065;51.082;17.016;2022-10-18T10:50:21;25;25;
56175;PMS5003;63065;51.082;17.016;2022-10-18T10:52:41;30;26;
56175;PMS5003;63065;51.082;17.016;2022-10-18T10:55:14;25;24;
56175;PMS5003;63065;51.082;17.016;2022-10-18T10:57:32;26;26;
56175;PMS5003;63065;51.082;17.016;2022-10-18T10:59:58;27;26;
56175;PMS5003;63065;51.082;17.016;2022-10-18T11:02:25;31;27;
56175;PMS5003;63065;51.082;17.016;2022-10-18T11:04:49;33;29;
56175;PMS5003;63065;51.082;17.016;2022-10-18T11:07:15;28;27;
56175;PMS5003;63065;51.082;17.016;2022-10-18T11:09:43;28;25;
56175;PMS5003;63065;51.082;17.016;2022-10-18T11:12:12;27;27;
56175;PMS5003;63065;51.082;17.016;2022-10-18T11:14:32;28;26;
56175;PMS5003;63065;51.082;17.016;2022-10-18T11:16:57;22;22;
56175;PMS5003;63065;51.082;17.016;2022-10-18T11:19:27;27;26;
56175;PMS5003;63065;51.082;17.016;2022-10-18T11:21:46;27;24;
56175;PMS5003;63065;51.082;17.016;2022-10-18T11:24:12;30;26;
56175;PMS5003;63065;51.082;17.016;2022-10-18T11:26:40;30;29;
56175;PMS5003;63065;51.082;17.016;2022-10-18T11:29:06;31;29;
56175;PMS5003;63065;51.082;17.016;2022-10-18T11:31:29;29;26;
56175;PMS5003;63065;51.082;17.016;2022-10-18T11:33:58;23;23;
56175;PMS5003;63065;51.082;17.016;2022-10-18T11:36:20;26;26;
56175;PMS5003;63065;51.082;17.016;2022-10-18T11:38:46;31;25;
56175;PMS5003;63065;51.082;17.016;2022-10-18T11:41:14;28;27;
56175;PMS5003;63065;51.082;17.016;2022-10-18T11:43:37;28;23;
56175;PMS5003;63065;51.082;17.016;2022-10-18T11:46:03;23;21;
56175;PMS5003;63065;51.082;17.016;2022-10-18T11:50:55;26;23;
56175;PMS5003;63065;51.082;17.016;2022-10-18T11:53:20;30;25;
56175;PMS5003;63065;51.082;17.016;2022-10-18T11:55:47;26;24;
56175;PMS5003;63065;51.082;17.016;2022-10-18T11:58:13;31;29;
56175;PMS5003;63065;51.082;17.016;2022-10-18T12:00:38;28;25;
56175;PMS5003;63065;51.082;17.016;2022-10-18T12:05:26;21;21;
56175;PMS5003;63065;51.082;17.016;2022-10-18T12:07:52;30;28;
56175;PMS5003;63065;51.082;17.016;2022-10-18T12:10:17;28;26;
56175;PMS5003;63065;51.082;17.016;2022-10-18T12:12:45;31;29;
56175;PMS5003;63065;51.082;17.016;2022-10-18T12:15:12;26;26;
56175;PMS5003;63065;51.082;17.016;2022-10-18T12:17:34;26;25;
56175;PMS5003;63065;51.082;17.016;2022-10-18T12:20:01;29;27;
56175;PMS5003;63065;51.082;17.016;2022-10-18T12:22:26;28;28;
56175;PMS5003;63065;51.082;17.016;2022-10-18T12:24:50;30;27;
56175;PMS5003;63065;51.082;17.016;2022-10-18T12:27:16;36;33;
56175;PMS5003;63065;51.082;17.016;2022-10-18T12:29:42;27;26;
56175;PMS5003;63065;51.082;17.016;2022-10-18T12:32:07;34;32;
56175;PMS5003;63065;51.082;17.016;2022-10-18T12:34:33;30;30;
56175;PMS5003;63065;51.082;17.016;2022-10-18T12:39:24;27;27;
56175;PMS5003;63065;51.082;17.016;2022-10-18T12:41:49;31;31;
56175;PMS5003;63065;51.082;17.016;2022-10-18T12:44:18;28;28;
56175;PMS5003;63065;51.082;17.016;2022-10-18T12:46:43;30;27;
56175;PMS5003;63065;51.082;17.016;2022-10-18T12:49:05;28;24;
56175;PMS5003;63065;51.082;17.016;2022-10-18T12:51:30;26;24;
56175;PMS5003;63065;51.082;17.016;2022-10-18T12:54:08;31;31;
56175;PMS5003;63065;51.082;17.016;2022-10-18T12:58:47;29;26;
56175;PMS5003;63065;51.082;17.016;2022-10-18T13:01:13;31;28;
56175;PMS5003;63065;51.082;17.016;2022-10-18T13:06:04;27;27;
56175;PMS5003;63065;51.082;17.016;2022-10-18T13:08:35;30;28;
56175;PMS5003;63065;51.082;17.016;2022-10-18T13:15:47;37;32;
56175;PMS5003;63065;51.082;17.016;2022-10-18T13:18:15;29;28;
56175;PMS5003;63065;51.082;17.016;2022-10-18T13:20:37;27;25;
56175;PMS5003;63065;51.082;17.016;2022-10-18T13:23:06;29;29;
56175;PMS5003;63065;51.082;17.016;2022-10-18T13:25:30;33;27;
56175;PMS5003;63065;51.082;17.016;2022-10-18T13:27:54;28;25;
56175;PMS5003;63065;51.082;17.016;2022-10-18T13:30:25;29;25;
56175;PMS5003;63065;51.082;17.016;2022-10-18T13:32:47;30;29;
56175;PMS5003;63065;51.082;17.016;2022-10-18T13:37:36;28;28;
56175;PMS5003;63065;51.082;17.016;2022-10-18T13:42:28;31;31;
56175;PMS5003;63065;51.082;17.016;2022-10-18T13:44:52;29;26;
56175;PMS5003;63065;51.082;17.016;2022-10-18T13:52:10;29;28;
56175;PMS5003;63065;51.082;17.016;2022-10-18T13:54:37;25;23;
56175;PMS5003;63065;51.082;17.016;2022-10-18T13:57:04;29;27;
56175;PMS5003;63065;51.082;17.016;2022-10-18T13:59:27;28;28;
56175;PMS5003;63065;51.082;17.016;2022-10-18T14:01:54;28;26;
56175;PMS5003;63065;51.082;17.016;2022-10-18T14:06:41;28;25;
56175;PMS5003;63065;51.082;17.016;2022-10-18T14:09:07;26;26;
56175;PMS5003;63065;51.082;17.016;2022-10-18T14:11:33;28;28;
56175;PMS5003;63065;51.082;17.016;2022-10-18T14:14:00;30;30;
56175;PMS5003;63065;51.082;17.016;2022-10-18T14:16:26;35;32;
56175;PMS5003;63065;51.082;17.016;2022-10-18T14:18:48;34;31;
56175;PMS5003;63065;51.082;17.016;2022-10-18T14:21:15;41;38;
56175;PMS5003;63065;51.082;17.016;2022-10-18T14:23:40;35;33;
56175;PMS5003;63065;51.082;17.016;2022-10-18T14:26:06;45;43;
56175;PMS5003;63065;51.082;17.016;2022-10-18T14:28:29;38;37;
56175;PMS5003;63065;51.082;17.016;2022-10-18T14:30:55;42;39;
56175;PMS5003;63065;51.082;17.016;2022-10-18T14:33:24;41;39;
56175;PMS5003;63065;51.082;17.016;2022-10-18T14:35:45;31;26;
56175;PMS5003;63065;51.082;17.016;2022-10-18T14:38:11;25;23;
56175;PMS5003;63065;51.082;17.016;2022-10-18T14:40:37;25;25;
56175;PMS5003;63065;51.082;17.016;2022-10-18T14:43:02;21;18;
56175;PMS5003;63065;51.082;17.016;2022-10-18T14:45:27;30;27;
56175;PMS5003;63065;51.082;17.016;2022-10-18T14:47:52;25;25;
56175;PMS5003;63065;51.082;17.016;2022-10-18T14:50:19;27;22;
56175;PMS5003;63065;51.082;17.016;2022-10-18T14:52:43;23;21;
56175;PMS5003;63065;51.082;17.016;2022-10-18T14:55:11;16;15;
56175;PMS5003;63065;51.082;17.016;2022-10-18T14:57:35;13;13;
56175;PMS5003;63065;51.082;17.016;2022-10-18T15:00:00;13;12;
56175;PMS5003;63065;51.082;17.016;2022-10-18T15:02:26;17;16;
56175;PMS5003;63065;51.082;17.016;2022-10-18T15:04:55;11;11;
56175;PMS5003;63065;51.082;17.016;2022-10-18T15:07:16;11;11;
56175;PMS5003;63065;51.082;17.016;2022-10-18T15:09:42;6;6;
56175;PMS5003;63065;51.082;17.016;2022-10-18T15:12:07;7;7;
56175;PMS5003;63065;51.082;17.016;2022-10-18T15:14:33;5;5;
56175;PMS5003;63065;51.082;17.016;2022-10-18T15:17:00;11;10;
56175;PMS5003;63065;51.082;17.016;2022-10-18T15:19:27;6;6;
56175;PMS5003;63065;51.082;17.016;2022-10-18T15:21:53;7;7;
56175;PMS5003;63065;51.082;17.016;2022-10-18T15:38:51;5;4;
56175;PMS5003;63065;51.082;17.016;2022-10-18T15:43:41;4;4;
56175;PMS5003;63065;51.082;17.016;2022-10-18T15:46:24;7;6;
56175;PMS5003;63065;51.082;17.016;2022-10-18T15:48:34;4;4;
56175;PMS5003;63065;51.082;17.016;2022-10-18T15:50:59;4;4;
56175;PMS5003;63065;51.082;17.016;2022-10-18T15:55:50;6;5;
56175;PMS5003;63065;51.082;17.016;2022-10-18T15:58:17;5;5;
56175;PMS5003;63065;51.082;17.016;2022-10-18T16:00:42;4;4;
56175;PMS5003;63065;51.082;17.016;2022-10-18T16:03:07;5;5;
56175;PMS5003;63065;51.082;17.016;2022-10-18T16:05:33;7;4;
56175;PMS5003;63065;51.082;17.016;2022-10-18T16:07:59;7;5;
56175;PMS5003;63065;51.082;17.016;2022-10-18T16:10:24;4;3;
56175;PMS5003;63065;51.082;17.016;2022-10-18T16:12:50;4;4;
56175;PMS5003;63065;51.082;17.016;2022-10-18T16:15:16;3;3;
56175;PMS5003;63065;51.082;17.016;2022-10-18T16:17:41;5;5;
56175;PMS5003;63065;51.082;17.016;2022-10-18T16:20:09;3;3;
56175;PMS5003;63065;51.082;17.016;2022-10-18T16:22:33;6;5;
56175;PMS5003;63065;51.082;17.016;2022-10-18T16:24:59;7;7;
56175;PMS5003;63065;51.082;17.016;2022-10-18T16:27:25;16;14;
56175;PMS5003;63065;51.082;17.016;2022-10-18T16:29:50;20;20;
56175;PMS5003;63065;51.082;17.016;2022-10-18T16:32:16;33;27;
56175;PMS5003;63065;51.082;17.016;2022-10-18T16:34:42;22;22;
56175;PMS5003;63065;51.082;17.016;2022-10-18T16:37:07;26;22;
56175;PMS5003;63065;51.082;17.016;2022-10-18T16:39:32;16;16;
56175;PMS5003;63065;51.082;17.016;2022-10-18T16:41:58;11;10;
56175;PMS5003;63065;51.082;17.016;2022-10-18T16:44:24;16;16;
56175;PMS5003;63065;51.082;17.016;2022-10-18T16:46:50;12;10;
56175;PMS5003;63065;51.082;17.016;2022-10-18T16:49:17;11;10;